DCR weather

CLOSED Decatur HI-Way Airfield
Decatur, Indiana, United States

Public forecast

Using degrees Fahrenheit for public forecast. Weather courtesy of forecast.io.

METAR (pilot weather report)

Closest report is Fort Wayne International Airport, 17.3 nm (32.0 km) WNW. Retrieved 2019/04/21 16:54 UTC (50 minutes ago):

KFWA 211654Z VRB04KT 10SM FEW012 FEW120 SCT250 15/09 A3008 RMK AO2 SLP189 T01500089

TAF (pilot weather forecast)

Closest forecast is Fort Wayne International Airport, 17.3 nm (32.0 km) WNW. Retrieved 2019/04/21 12:24 UTC (5 hours ago):

TAF KSBN 211123Z 2112/2212 19007KT P6SM SCT100= TAF KFWA 211123Z 2112/2212 00000KT 4SM BR SCT003 FM211230 20006KT P6SM SCT100